<?xml version="1.0" encoding="UTF-8" standalone="no" ?>
<gpx xmlns="http://www.topografix.com/GPX/1/1" xmlns:xsi="http://www.w3.org/2001/XMLSchema-instance" xsi:schemaLocation="http://www.topografix.com/GPX/1/1 http://www.topografix.com/GPX/1/1/gpx.xsd" version="1.1" creator="VisuGPX - https://www.visugpx.com">
  <metadata>
    <name>rando castelmorron d'albret 7 km</name>
    <desc><![CDATA[les photos de la rando sont visibles en suivant le lien [url]https://rando-pedestre-33.over-blog.com/2021/12/rando-castelmoron-d-abret-8-km.html[/url]]]></desc>
  </metadata>
  <trk>
    <name><![CDATA[rando castelmorron d'albret 7 km]]></name>
    <trkseg>
      <trkpt lat="44.68033" lon="-0.01153">
        <ele>52</ele>
        <time>2021-12-19T16:27:27Z</time>
      </trkpt>
      <trkpt lat="44.68016" lon="-0.01144">
        <ele>52</ele>
        <time>2021-12-19T16:27:51Z</time>
      </trkpt>
      <trkpt lat="44.68011" lon="-0.01145">
        <ele>53</ele>
        <time>2021-12-19T16:27:58Z</time>
      </trkpt>
      <trkpt lat="44.68013" lon="-0.01152">
        <ele>53</ele>
        <time>2021-12-19T16:28:05Z</time>
      </trkpt>
      <trkpt lat="44.67998" lon="-0.01162">
        <ele>55</ele>
        <time>2021-12-19T16:28:27Z</time>
      </trkpt>
      <trkpt lat="44.68007" lon="-0.01157">
        <ele>54</ele>
        <time>2021-12-19T16:28:40Z</time>
      </trkpt>
      <trkpt lat="44.68002" lon="-0.01159">
        <ele>55</ele>
        <time>2021-12-19T16:28:47Z</time>
      </trkpt>
      <trkpt lat="44.67996" lon="-0.01168">
        <ele>56</ele>
        <time>2021-12-19T16:28:59Z</time>
      </trkpt>
      <trkpt lat="44.67994" lon="-0.01176">
        <ele>56</ele>
        <time>2021-12-19T16:29:07Z</time>
      </trkpt>
      <trkpt lat="44.67985" lon="-0.01186">
        <ele>56</ele>
        <time>2021-12-19T16:29:22Z</time>
      </trkpt>
      <trkpt lat="44.67984" lon="-0.01179">
        <ele>56</ele>
        <time>2021-12-19T16:29:29Z</time>
      </trkpt>
      <trkpt lat="44.67989" lon="-0.01176">
        <ele>56</ele>
        <time>2021-12-19T16:29:36Z</time>
      </trkpt>
      <trkpt lat="44.67962" lon="-0.01185">
        <ele>55</ele>
        <time>2021-12-19T16:30:13Z</time>
      </trkpt>
      <trkpt lat="44.67958" lon="-0.01189">
        <ele>55</ele>
        <time>2021-12-19T16:30:20Z</time>
      </trkpt>
      <trkpt lat="44.67952" lon="-0.01189">
        <ele>55</ele>
        <time>2021-12-19T16:30:28Z</time>
      </trkpt>
      <trkpt lat="44.67941" lon="-0.01201">
        <ele>54</ele>
        <time>2021-12-19T16:30:46Z</time>
      </trkpt>
      <trkpt lat="44.67942" lon="-0.01206">
        <ele>54</ele>
        <time>2021-12-19T16:30:51Z</time>
      </trkpt>
      <trkpt lat="44.6794" lon="-0.01202">
        <ele>54</ele>
        <time>2021-12-19T16:30:56Z</time>
      </trkpt>
      <trkpt lat="44.67935" lon="-0.01201">
        <ele>54</ele>
        <time>2021-12-19T16:31:03Z</time>
      </trkpt>
      <trkpt lat="44.67943" lon="-0.0121">
        <ele>55</ele>
        <time>2021-12-19T16:31:16Z</time>
      </trkpt>
      <trkpt lat="44.67938" lon="-0.01226">
        <ele>54</ele>
        <time>2021-12-19T16:31:33Z</time>
      </trkpt>
      <trkpt lat="44.67934" lon="-0.0123">
        <ele>54</ele>
        <time>2021-12-19T16:31:40Z</time>
      </trkpt>
      <trkpt lat="44.67933" lon="-0.01237">
        <ele>54</ele>
        <time>2021-12-19T16:31:46Z</time>
      </trkpt>
      <trkpt lat="44.6792" lon="-0.01254">
        <ele>53</ele>
        <time>2021-12-19T16:32:10Z</time>
      </trkpt>
      <trkpt lat="44.67916" lon="-0.01258">
        <ele>53</ele>
        <time>2021-12-19T16:32:17Z</time>
      </trkpt>
      <trkpt lat="44.67911" lon="-0.01259">
        <ele>53</ele>
        <time>2021-12-19T16:32:23Z</time>
      </trkpt>
      <trkpt lat="44.67908" lon="-0.01273">
        <ele>53</ele>
        <time>2021-12-19T16:32:37Z</time>
      </trkpt>
      <trkpt lat="44.67903" lon="-0.01276">
        <ele>52</ele>
        <time>2021-12-19T16:32:44Z</time>
      </trkpt>
      <trkpt lat="44.67898" lon="-0.01275">
        <ele>52</ele>
        <time>2021-12-19T16:32:51Z</time>
      </trkpt>
      <trkpt lat="44.67891" lon="-0.01289">
        <ele>51</ele>
        <time>2021-12-19T16:33:07Z</time>
      </trkpt>
      <trkpt lat="44.67891" lon="-0.01297">
        <ele>52</ele>
        <time>2021-12-19T16:33:15Z</time>
      </trkpt>
      <trkpt lat="44.67887" lon="-0.01302">
        <ele>51</ele>
        <time>2021-12-19T16:33:22Z</time>
      </trkpt>
      <trkpt lat="44.67883" lon="-0.01324">
        <ele>52</ele>
        <time>2021-12-19T16:33:44Z</time>
      </trkpt>
      <trkpt lat="44.67875" lon="-0.01336">
        <ele>51</ele>
        <time>2021-12-19T16:33:59Z</time>
      </trkpt>
      <trkpt lat="44.6787" lon="-0.01355">
        <ele>51</ele>
        <time>2021-12-19T16:34:18Z</time>
      </trkpt>
      <trkpt lat="44.67866" lon="-0.0136">
        <ele>51</ele>
        <time>2021-12-19T16:34:26Z</time>
      </trkpt>
      <trkpt lat="44.67867" lon="-0.01368">
        <ele>51</ele>
        <time>2021-12-19T16:34:33Z</time>
      </trkpt>
      <trkpt lat="44.67859" lon="-0.01377">
        <ele>50</ele>
        <time>2021-12-19T16:34:47Z</time>
      </trkpt>
      <trkpt lat="44.67854" lon="-0.01377">
        <ele>50</ele>
        <time>2021-12-19T16:34:54Z</time>
      </trkpt>
      <trkpt lat="44.67858" lon="-0.01392">
        <ele>51</ele>
        <time>2021-12-19T16:35:09Z</time>
      </trkpt>
      <trkpt lat="44.67853" lon="-0.0139">
        <ele>50</ele>
        <time>2021-12-19T16:35:16Z</time>
      </trkpt>
      <trkpt lat="44.67838" lon="-0.01415">
        <ele>49</ele>
        <time>2021-12-19T16:35:47Z</time>
      </trkpt>
      <trkpt lat="44.67834" lon="-0.01418">
        <ele>48</ele>
        <time>2021-12-19T16:35:53Z</time>
      </trkpt>
      <trkpt lat="44.67834" lon="-0.01426">
        <ele>49</ele>
        <time>2021-12-19T16:36:00Z</time>
      </trkpt>
      <trkpt lat="44.67825" lon="-0.01446">
        <ele>50</ele>
        <time>2021-12-19T16:36:23Z</time>
      </trkpt>
      <trkpt lat="44.67823" lon="-0.01459">
        <ele>50</ele>
        <time>2021-12-19T16:36:36Z</time>
      </trkpt>
      <trkpt lat="44.67818" lon="-0.01464">
        <ele>50</ele>
        <time>2021-12-19T16:36:44Z</time>
      </trkpt>
      <trkpt lat="44.67816" lon="-0.0147">
        <ele>50</ele>
        <time>2021-12-19T16:36:50Z</time>
      </trkpt>
      <trkpt lat="44.67806" lon="-0.01512">
        <ele>51</ele>
        <time>2021-12-19T16:37:32Z</time>
      </trkpt>
      <trkpt lat="44.67807" lon="-0.01527">
        <ele>52</ele>
        <time>2021-12-19T16:37:46Z</time>
      </trkpt>
      <trkpt lat="44.67803" lon="-0.0155">
        <ele>53</ele>
        <time>2021-12-19T16:38:09Z</time>
      </trkpt>
      <trkpt lat="44.67798" lon="-0.01562">
        <ele>53</ele>
        <time>2021-12-19T16:38:22Z</time>
      </trkpt>
      <trkpt lat="44.67797" lon="-0.01576">
        <ele>54</ele>
        <time>2021-12-19T16:38:35Z</time>
      </trkpt>
      <trkpt lat="44.67795" lon="-0.01583">
        <ele>54</ele>
        <time>2021-12-19T16:38:43Z</time>
      </trkpt>
      <trkpt lat="44.67784" lon="-0.01598">
        <ele>54</ele>
        <time>2021-12-19T16:39:03Z</time>
      </trkpt>
      <trkpt lat="44.67777" lon="-0.01622">
        <ele>56</ele>
        <time>2021-12-19T16:39:28Z</time>
      </trkpt>
      <trkpt lat="44.67786" lon="-0.0165">
        <ele>59</ele>
        <time>2021-12-19T16:39:57Z</time>
      </trkpt>
      <trkpt lat="44.6779" lon="-0.01671">
        <ele>61</ele>
        <time>2021-12-19T16:40:17Z</time>
      </trkpt>
      <trkpt lat="44.67788" lon="-0.01677">
        <ele>61</ele>
        <time>2021-12-19T16:40:24Z</time>
      </trkpt>
      <trkpt lat="44.67773" lon="-0.01709">
        <ele>61</ele>
        <time>2021-12-19T16:41:00Z</time>
      </trkpt>
      <trkpt lat="44.67768" lon="-0.01711">
        <ele>61</ele>
        <time>2021-12-19T16:41:07Z</time>
      </trkpt>
      <trkpt lat="44.67758" lon="-0.01722">
        <ele>61</ele>
        <time>2021-12-19T16:41:24Z</time>
      </trkpt>
      <trkpt lat="44.67753" lon="-0.01723">
        <ele>60</ele>
        <time>2021-12-19T16:41:31Z</time>
      </trkpt>
      <trkpt lat="44.67744" lon="-0.0173">
        <ele>60</ele>
        <time>2021-12-19T16:41:44Z</time>
      </trkpt>
      <trkpt lat="44.67728" lon="-0.01747">
        <ele>60</ele>
        <time>2021-12-19T16:42:11Z</time>
      </trkpt>
      <trkpt lat="44.67724" lon="-0.01747">
        <ele>60</ele>
        <time>2021-12-19T16:42:16Z</time>
      </trkpt>
      <trkpt lat="44.67715" lon="-0.01753">
        <ele>59</ele>
        <time>2021-12-19T16:42:30Z</time>
      </trkpt>
      <trkpt lat="44.677" lon="-0.0177">
        <ele>59</ele>
        <time>2021-12-19T16:42:55Z</time>
      </trkpt>
      <trkpt lat="44.67669" lon="-0.01777">
        <ele>57</ele>
        <time>2021-12-19T16:43:37Z</time>
      </trkpt>
      <trkpt lat="44.67664" lon="-0.01781">
        <ele>57</ele>
        <time>2021-12-19T16:43:45Z</time>
      </trkpt>
      <trkpt lat="44.67652" lon="-0.0178">
        <ele>57</ele>
        <time>2021-12-19T16:44:01Z</time>
      </trkpt>
      <trkpt lat="44.6764" lon="-0.01786">
        <ele>58</ele>
        <time>2021-12-19T16:44:18Z</time>
      </trkpt>
      <trkpt lat="44.67614" lon="-0.01786">
        <ele>58</ele>
        <time>2021-12-19T16:44:53Z</time>
      </trkpt>
      <trkpt lat="44.67609" lon="-0.01788">
        <ele>58</ele>
        <time>2021-12-19T16:45:00Z</time>
      </trkpt>
      <trkpt lat="44.67604" lon="-0.01785">
        <ele>58</ele>
        <time>2021-12-19T16:45:07Z</time>
      </trkpt>
      <trkpt lat="44.67586" lon="-0.01796">
        <ele>59</ele>
        <time>2021-12-19T16:45:33Z</time>
      </trkpt>
      <trkpt lat="44.67579" lon="-0.01805">
        <ele>60</ele>
        <time>2021-12-19T16:45:46Z</time>
      </trkpt>
      <trkpt lat="44.67564" lon="-0.01803">
        <ele>60</ele>
        <time>2021-12-19T16:46:06Z</time>
      </trkpt>
      <trkpt lat="44.67558" lon="-0.01805">
        <ele>61</ele>
        <time>2021-12-19T16:46:14Z</time>
      </trkpt>
      <trkpt lat="44.67534" lon="-0.01799">
        <ele>61</ele>
        <time>2021-12-19T16:46:47Z</time>
      </trkpt>
      <trkpt lat="44.6753" lon="-0.01806">
        <ele>62</ele>
        <time>2021-12-19T16:46:55Z</time>
      </trkpt>
      <trkpt lat="44.67486" lon="-0.01811">
        <ele>63</ele>
        <time>2021-12-19T16:47:54Z</time>
      </trkpt>
      <trkpt lat="44.67482" lon="-0.01809">
        <ele>63</ele>
        <time>2021-12-19T16:48:00Z</time>
      </trkpt>
      <trkpt lat="44.67476" lon="-0.01814">
        <ele>63</ele>
        <time>2021-12-19T16:48:09Z</time>
      </trkpt>
      <trkpt lat="44.67462" lon="-0.01814">
        <ele>63</ele>
        <time>2021-12-19T16:48:28Z</time>
      </trkpt>
      <trkpt lat="44.6746" lon="-0.01821">
        <ele>64</ele>
        <time>2021-12-19T16:48:35Z</time>
      </trkpt>
      <trkpt lat="44.67452" lon="-0.01826">
        <ele>64</ele>
        <time>2021-12-19T16:48:47Z</time>
      </trkpt>
      <trkpt lat="44.67432" lon="-0.01831">
        <ele>64</ele>
        <time>2021-12-19T16:49:14Z</time>
      </trkpt>
      <trkpt lat="44.67421" lon="-0.01831">
        <ele>64</ele>
        <time>2021-12-19T16:49:28Z</time>
      </trkpt>
      <trkpt lat="44.67416" lon="-0.01828">
        <ele>64</ele>
        <time>2021-12-19T16:49:36Z</time>
      </trkpt>
      <trkpt lat="44.67414" lon="-0.01834">
        <ele>64</ele>
        <time>2021-12-19T16:49:42Z</time>
      </trkpt>
      <trkpt lat="44.67403" lon="-0.01833">
        <ele>63</ele>
        <time>2021-12-19T16:49:57Z</time>
      </trkpt>
      <trkpt lat="44.67399" lon="-0.01838">
        <ele>63</ele>
        <time>2021-12-19T16:50:04Z</time>
      </trkpt>
      <trkpt lat="44.67377" lon="-0.01836">
        <ele>62</ele>
        <time>2021-12-19T16:50:33Z</time>
      </trkpt>
      <trkpt lat="44.67352" lon="-0.01839">
        <ele>61</ele>
        <time>2021-12-19T16:51:07Z</time>
      </trkpt>
      <trkpt lat="44.67317" lon="-0.01839">
        <ele>59</ele>
        <time>2021-12-19T16:51:53Z</time>
      </trkpt>
      <trkpt lat="44.67291" lon="-0.01842">
        <ele>59</ele>
        <time>2021-12-19T16:52:28Z</time>
      </trkpt>
      <trkpt lat="44.67286" lon="-0.01845">
        <ele>58</ele>
        <time>2021-12-19T16:52:35Z</time>
      </trkpt>
      <trkpt lat="44.67267" lon="-0.01841">
        <ele>58</ele>
        <time>2021-12-19T16:53:01Z</time>
      </trkpt>
      <trkpt lat="44.67259" lon="-0.01847">
        <ele>58</ele>
        <time>2021-12-19T16:53:13Z</time>
      </trkpt>
      <trkpt lat="44.67242" lon="-0.01847">
        <ele>57</ele>
        <time>2021-12-19T16:53:36Z</time>
      </trkpt>
      <trkpt lat="44.67239" lon="-0.0185">
        <ele>57</ele>
        <time>2021-12-19T16:53:41Z</time>
      </trkpt>
      <trkpt lat="44.67215" lon="-0.01855">
        <ele>56</ele>
        <time>2021-12-19T16:54:13Z</time>
      </trkpt>
      <trkpt lat="44.6719" lon="-0.01866">
        <ele>55</ele>
        <time>2021-12-19T16:54:48Z</time>
      </trkpt>
      <trkpt lat="44.6718" lon="-0.01864">
        <ele>55</ele>
        <time>2021-12-19T16:55:02Z</time>
      </trkpt>
      <trkpt lat="44.67176" lon="-0.01866">
        <ele>55</ele>
        <time>2021-12-19T16:55:07Z</time>
      </trkpt>
      <trkpt lat="44.67172" lon="-0.01863">
        <ele>54</ele>
        <time>2021-12-19T16:55:13Z</time>
      </trkpt>
      <trkpt lat="44.67157" lon="-0.01868">
        <ele>54</ele>
        <time>2021-12-19T16:55:34Z</time>
      </trkpt>
      <trkpt lat="44.67141" lon="-0.0187">
        <ele>53</ele>
        <time>2021-12-19T16:55:55Z</time>
      </trkpt>
      <trkpt lat="44.67124" lon="-0.01877">
        <ele>53</ele>
        <time>2021-12-19T16:56:19Z</time>
      </trkpt>
      <trkpt lat="44.67114" lon="-0.01874">
        <ele>52</ele>
        <time>2021-12-19T16:56:33Z</time>
      </trkpt>
      <trkpt lat="44.6711" lon="-0.01879">
        <ele>52</ele>
        <time>2021-12-19T16:56:40Z</time>
      </trkpt>
      <trkpt lat="44.671" lon="-0.0188">
        <ele>52</ele>
        <time>2021-12-19T16:56:53Z</time>
      </trkpt>
      <trkpt lat="44.67096" lon="-0.01884">
        <ele>52</ele>
        <time>2021-12-19T16:57:00Z</time>
      </trkpt>
      <trkpt lat="44.6708" lon="-0.01888">
        <ele>51</ele>
        <time>2021-12-19T16:57:21Z</time>
      </trkpt>
      <trkpt lat="44.67059" lon="-0.019">
        <ele>50</ele>
        <time>2021-12-19T16:57:52Z</time>
      </trkpt>
      <trkpt lat="44.67041" lon="-0.01925">
        <ele>52</ele>
        <time>2021-12-19T16:58:25Z</time>
      </trkpt>
      <trkpt lat="44.67014" lon="-0.01943">
        <ele>51</ele>
        <time>2021-12-19T16:59:05Z</time>
      </trkpt>
      <trkpt lat="44.67013" lon="-0.01949">
        <ele>52</ele>
        <time>2021-12-19T16:59:11Z</time>
      </trkpt>
      <trkpt lat="44.67008" lon="-0.01951">
        <ele>51</ele>
        <time>2021-12-19T16:59:18Z</time>
      </trkpt>
      <trkpt lat="44.67009" lon="-0.01956">
        <ele>52</ele>
        <time>2021-12-19T16:59:23Z</time>
      </trkpt>
      <trkpt lat="44.66996" lon="-0.0196">
        <ele>52</ele>
        <time>2021-12-19T16:59:41Z</time>
      </trkpt>
      <trkpt lat="44.66995" lon="-0.01965">
        <ele>52</ele>
        <time>2021-12-19T16:59:46Z</time>
      </trkpt>
      <trkpt lat="44.66956" lon="-0.01982">
        <ele>53</ele>
        <time>2021-12-19T17:00:40Z</time>
      </trkpt>
      <trkpt lat="44.66945" lon="-0.01982">
        <ele>53</ele>
        <time>2021-12-19T17:00:55Z</time>
      </trkpt>
      <trkpt lat="44.6693" lon="-0.01987">
        <ele>54</ele>
        <time>2021-12-19T17:01:15Z</time>
      </trkpt>
      <trkpt lat="44.66924" lon="-0.01986">
        <ele>54</ele>
        <time>2021-12-19T17:01:23Z</time>
      </trkpt>
      <trkpt lat="44.66916" lon="-0.01993">
        <ele>55</ele>
        <time>2021-12-19T17:01:36Z</time>
      </trkpt>
      <trkpt lat="44.66906" lon="-0.01995">
        <ele>55</ele>
        <time>2021-12-19T17:01:50Z</time>
      </trkpt>
      <trkpt lat="44.66903" lon="-0.02">
        <ele>56</ele>
        <time>2021-12-19T17:01:56Z</time>
      </trkpt>
      <trkpt lat="44.66884" lon="-0.02005">
        <ele>57</ele>
        <time>2021-12-19T17:02:22Z</time>
      </trkpt>
      <trkpt lat="44.6688" lon="-0.02004">
        <ele>57</ele>
        <time>2021-12-19T17:02:27Z</time>
      </trkpt>
      <trkpt lat="44.66874" lon="-0.02013">
        <ele>57</ele>
        <time>2021-12-19T17:02:39Z</time>
      </trkpt>
      <trkpt lat="44.66869" lon="-0.02011">
        <ele>57</ele>
        <time>2021-12-19T17:02:46Z</time>
      </trkpt>
      <trkpt lat="44.66848" lon="-0.02012">
        <ele>57</ele>
        <time>2021-12-19T17:03:14Z</time>
      </trkpt>
      <trkpt lat="44.66827" lon="-0.02018">
        <ele>57</ele>
        <time>2021-12-19T17:03:42Z</time>
      </trkpt>
      <trkpt lat="44.66809" lon="-0.02032">
        <ele>57</ele>
        <time>2021-12-19T17:04:10Z</time>
      </trkpt>
      <trkpt lat="44.66812" lon="-0.02044">
        <ele>56</ele>
        <time>2021-12-19T17:04:22Z</time>
      </trkpt>
      <trkpt lat="44.66807" lon="-0.02059">
        <ele>56</ele>
        <time>2021-12-19T17:04:37Z</time>
      </trkpt>
      <trkpt lat="44.66802" lon="-0.02098">
        <ele>55</ele>
        <time>2021-12-19T17:05:15Z</time>
      </trkpt>
      <trkpt lat="44.66792" lon="-0.02122">
        <ele>54</ele>
        <time>2021-12-19T17:05:42Z</time>
      </trkpt>
      <trkpt lat="44.66792" lon="-0.02129">
        <ele>54</ele>
        <time>2021-12-19T17:05:48Z</time>
      </trkpt>
      <trkpt lat="44.66788" lon="-0.02135">
        <ele>53</ele>
        <time>2021-12-19T17:05:56Z</time>
      </trkpt>
      <trkpt lat="44.6679" lon="-0.02149">
        <ele>53</ele>
        <time>2021-12-19T17:06:10Z</time>
      </trkpt>
      <trkpt lat="44.66785" lon="-0.02169">
        <ele>52</ele>
        <time>2021-12-19T17:06:30Z</time>
      </trkpt>
      <trkpt lat="44.66788" lon="-0.02174">
        <ele>51</ele>
        <time>2021-12-19T17:06:36Z</time>
      </trkpt>
      <trkpt lat="44.66783" lon="-0.02194">
        <ele>50</ele>
        <time>2021-12-19T17:06:56Z</time>
      </trkpt>
      <trkpt lat="44.66773" lon="-0.022">
        <ele>50</ele>
        <time>2021-12-19T17:07:10Z</time>
      </trkpt>
      <trkpt lat="44.66768" lon="-0.02197">
        <ele>50</ele>
        <time>2021-12-19T17:07:18Z</time>
      </trkpt>
      <trkpt lat="44.6676" lon="-0.02209">
        <ele>49</ele>
        <time>2021-12-19T17:07:33Z</time>
      </trkpt>
      <trkpt lat="44.66763" lon="-0.02214">
        <ele>49</ele>
        <time>2021-12-19T17:07:40Z</time>
      </trkpt>
      <trkpt lat="44.66747" lon="-0.02212">
        <ele>49</ele>
        <time>2021-12-19T17:08:01Z</time>
      </trkpt>
      <trkpt lat="44.66742" lon="-0.02209">
        <ele>49</ele>
        <time>2021-12-19T17:08:08Z</time>
      </trkpt>
      <trkpt lat="44.66729" lon="-0.02209">
        <ele>49</ele>
        <time>2021-12-19T17:08:26Z</time>
      </trkpt>
      <trkpt lat="44.66725" lon="-0.02204">
        <ele>49</ele>
        <time>2021-12-19T17:08:33Z</time>
      </trkpt>
      <trkpt lat="44.66721" lon="-0.02207">
        <ele>49</ele>
        <time>2021-12-19T17:08:39Z</time>
      </trkpt>
      <trkpt lat="44.66702" lon="-0.02203">
        <ele>48</ele>
        <time>2021-12-19T17:09:04Z</time>
      </trkpt>
      <trkpt lat="44.66691" lon="-0.02207">
        <ele>48</ele>
        <time>2021-12-19T17:09:20Z</time>
      </trkpt>
      <trkpt lat="44.6667" lon="-0.02202">
        <ele>47</ele>
        <time>2021-12-19T17:09:48Z</time>
      </trkpt>
      <trkpt lat="44.66663" lon="-0.02209">
        <ele>46</ele>
        <time>2021-12-19T17:09:59Z</time>
      </trkpt>
      <trkpt lat="44.66662" lon="-0.02217">
        <ele>45</ele>
        <time>2021-12-19T17:10:07Z</time>
      </trkpt>
      <trkpt lat="44.66681" lon="-0.02241">
        <ele>44</ele>
        <time>2021-12-19T17:10:41Z</time>
      </trkpt>
      <trkpt lat="44.66681" lon="-0.0225">
        <ele>43</ele>
        <time>2021-12-19T17:10:50Z</time>
      </trkpt>
      <trkpt lat="44.66687" lon="-0.0226">
        <ele>43</ele>
        <time>2021-12-19T17:11:02Z</time>
      </trkpt>
      <trkpt lat="44.66701" lon="-0.02262">
        <ele>44</ele>
        <time>2021-12-19T17:11:21Z</time>
      </trkpt>
      <trkpt lat="44.66707" lon="-0.0226">
        <ele>44</ele>
        <time>2021-12-19T17:11:29Z</time>
      </trkpt>
      <trkpt lat="44.66709" lon="-0.02254">
        <ele>44</ele>
        <time>2021-12-19T17:11:35Z</time>
      </trkpt>
      <trkpt lat="44.66713" lon="-0.0226">
        <ele>44</ele>
        <time>2021-12-19T17:11:43Z</time>
      </trkpt>
      <trkpt lat="44.66725" lon="-0.02267">
        <ele>45</ele>
        <time>2021-12-19T17:12:01Z</time>
      </trkpt>
      <trkpt lat="44.66735" lon="-0.0227">
        <ele>45</ele>
        <time>2021-12-19T17:12:14Z</time>
      </trkpt>
      <trkpt lat="44.66741" lon="-0.02269">
        <ele>46</ele>
        <time>2021-12-19T17:12:22Z</time>
      </trkpt>
      <trkpt lat="44.66755" lon="-0.02274">
        <ele>46</ele>
        <time>2021-12-19T17:12:42Z</time>
      </trkpt>
      <trkpt lat="44.66766" lon="-0.0227">
        <ele>46</ele>
        <time>2021-12-19T17:12:57Z</time>
      </trkpt>
      <trkpt lat="44.6677" lon="-0.02264">
        <ele>46</ele>
        <time>2021-12-19T17:13:05Z</time>
      </trkpt>
      <trkpt lat="44.66772" lon="-0.02268">
        <ele>46</ele>
        <time>2021-12-19T17:13:09Z</time>
      </trkpt>
      <trkpt lat="44.66775" lon="-0.02268">
        <ele>45</ele>
        <time>2021-12-19T17:13:13Z</time>
      </trkpt>
      <trkpt lat="44.66776" lon="-0.02274">
        <ele>45</ele>
        <time>2021-12-19T17:13:19Z</time>
      </trkpt>
      <trkpt lat="44.66783" lon="-0.02283">
        <ele>45</ele>
        <time>2021-12-19T17:13:32Z</time>
      </trkpt>
      <trkpt lat="44.668" lon="-0.02287">
        <ele>44</ele>
        <time>2021-12-19T17:13:55Z</time>
      </trkpt>
      <trkpt lat="44.66808" lon="-0.02294">
        <ele>44</ele>
        <time>2021-12-19T17:14:07Z</time>
      </trkpt>
      <trkpt lat="44.66818" lon="-0.02291">
        <ele>44</ele>
        <time>2021-12-19T17:14:21Z</time>
      </trkpt>
      <trkpt lat="44.66833" lon="-0.02307">
        <ele>43</ele>
        <time>2021-12-19T17:14:46Z</time>
      </trkpt>
      <trkpt lat="44.66842" lon="-0.02313">
        <ele>43</ele>
        <time>2021-12-19T17:14:59Z</time>
      </trkpt>
      <trkpt lat="44.66851" lon="-0.02312">
        <ele>43</ele>
        <time>2021-12-19T17:15:11Z</time>
      </trkpt>
      <trkpt lat="44.66861" lon="-0.02319">
        <ele>43</ele>
        <time>2021-12-19T17:15:26Z</time>
      </trkpt>
      <trkpt lat="44.66863" lon="-0.02333">
        <ele>43</ele>
        <time>2021-12-19T17:15:40Z</time>
      </trkpt>
      <trkpt lat="44.66874" lon="-0.02347">
        <ele>44</ele>
        <time>2021-12-19T17:16:00Z</time>
      </trkpt>
      <trkpt lat="44.66879" lon="-0.02351">
        <ele>45</ele>
        <time>2021-12-19T17:16:07Z</time>
      </trkpt>
      <trkpt lat="44.66888" lon="-0.02353">
        <ele>45</ele>
        <time>2021-12-19T17:16:20Z</time>
      </trkpt>
      <trkpt lat="44.66892" lon="-0.02365">
        <ele>46</ele>
        <time>2021-12-19T17:16:32Z</time>
      </trkpt>
      <trkpt lat="44.66916" lon="-0.02395">
        <ele>48</ele>
        <time>2021-12-19T17:17:15Z</time>
      </trkpt>
      <trkpt lat="44.66923" lon="-0.02409">
        <ele>49</ele>
        <time>2021-12-19T17:17:31Z</time>
      </trkpt>
      <trkpt lat="44.66929" lon="-0.02412">
        <ele>48</ele>
        <time>2021-12-19T17:17:40Z</time>
      </trkpt>
      <trkpt lat="44.66937" lon="-0.0243">
        <ele>48</ele>
        <time>2021-12-19T17:18:00Z</time>
      </trkpt>
      <trkpt lat="44.66945" lon="-0.02437">
        <ele>48</ele>
        <time>2021-12-19T17:18:12Z</time>
      </trkpt>
      <trkpt lat="44.66945" lon="-0.02455">
        <ele>49</ele>
        <time>2021-12-19T17:18:29Z</time>
      </trkpt>
      <trkpt lat="44.6695" lon="-0.02463">
        <ele>48</ele>
        <time>2021-12-19T17:18:40Z</time>
      </trkpt>
      <trkpt lat="44.66954" lon="-0.02478">
        <ele>49</ele>
        <time>2021-12-19T17:18:55Z</time>
      </trkpt>
      <trkpt lat="44.66959" lon="-0.02483">
        <ele>48</ele>
        <time>2021-12-19T17:19:03Z</time>
      </trkpt>
      <trkpt lat="44.66962" lon="-0.02496">
        <ele>48</ele>
        <time>2021-12-19T17:19:16Z</time>
      </trkpt>
      <trkpt lat="44.6697" lon="-0.02505">
        <ele>48</ele>
        <time>2021-12-19T17:19:30Z</time>
      </trkpt>
      <trkpt lat="44.66972" lon="-0.02525">
        <ele>48</ele>
        <time>2021-12-19T17:19:49Z</time>
      </trkpt>
      <trkpt lat="44.66975" lon="-0.02519">
        <ele>48</ele>
        <time>2021-12-19T17:19:56Z</time>
      </trkpt>
      <trkpt lat="44.6698" lon="-0.02521">
        <ele>47</ele>
        <time>2021-12-19T17:20:03Z</time>
      </trkpt>
      <trkpt lat="44.66983" lon="-0.02539">
        <ele>48</ele>
        <time>2021-12-19T17:20:20Z</time>
      </trkpt>
      <trkpt lat="44.6699" lon="-0.02556">
        <ele>48</ele>
        <time>2021-12-19T17:20:39Z</time>
      </trkpt>
      <trkpt lat="44.66988" lon="-0.02565">
        <ele>48</ele>
        <time>2021-12-19T17:20:48Z</time>
      </trkpt>
      <trkpt lat="44.6699" lon="-0.02574">
        <ele>49</ele>
        <time>2021-12-19T17:20:57Z</time>
      </trkpt>
      <trkpt lat="44.66999" lon="-0.02594">
        <ele>48</ele>
        <time>2021-12-19T17:21:19Z</time>
      </trkpt>
      <trkpt lat="44.67001" lon="-0.02618">
        <ele>49</ele>
        <time>2021-12-19T17:21:42Z</time>
      </trkpt>
      <trkpt lat="44.67008" lon="-0.0263">
        <ele>49</ele>
        <time>2021-12-19T17:21:57Z</time>
      </trkpt>
      <trkpt lat="44.67014" lon="-0.02632">
        <ele>48</ele>
        <time>2021-12-19T17:22:05Z</time>
      </trkpt>
      <trkpt lat="44.67019" lon="-0.02645">
        <ele>48</ele>
        <time>2021-12-19T17:22:19Z</time>
      </trkpt>
      <trkpt lat="44.67038" lon="-0.02647">
        <ele>47</ele>
        <time>2021-12-19T17:22:45Z</time>
      </trkpt>
      <trkpt lat="44.67044" lon="-0.02642">
        <ele>47</ele>
        <time>2021-12-19T17:22:54Z</time>
      </trkpt>
      <trkpt lat="44.67054" lon="-0.02641">
        <ele>46</ele>
        <time>2021-12-19T17:23:07Z</time>
      </trkpt>
      <trkpt lat="44.67056" lon="-0.02634">
        <ele>46</ele>
        <time>2021-12-19T17:23:14Z</time>
      </trkpt>
      <trkpt lat="44.67061" lon="-0.02634">
        <ele>46</ele>
        <time>2021-12-19T17:23:21Z</time>
      </trkpt>
      <trkpt lat="44.67063" lon="-0.02628">
        <ele>46</ele>
        <time>2021-12-19T17:23:27Z</time>
      </trkpt>
      <trkpt lat="44.67068" lon="-0.02632">
        <ele>45</ele>
        <time>2021-12-19T17:23:35Z</time>
      </trkpt>
      <trkpt lat="44.67072" lon="-0.02627">
        <ele>45</ele>
        <time>2021-12-19T17:23:42Z</time>
      </trkpt>
      <trkpt lat="44.67087" lon="-0.0263">
        <ele>45</ele>
        <time>2021-12-19T17:24:02Z</time>
      </trkpt>
      <trkpt lat="44.67091" lon="-0.02627">
        <ele>45</ele>
        <time>2021-12-19T17:24:08Z</time>
      </trkpt>
      <trkpt lat="44.67096" lon="-0.02628">
        <ele>46</ele>
        <time>2021-12-19T17:24:15Z</time>
      </trkpt>
      <trkpt lat="44.67102" lon="-0.02619">
        <ele>46</ele>
        <time>2021-12-19T17:24:27Z</time>
      </trkpt>
      <trkpt lat="44.67099" lon="-0.02607">
        <ele>46</ele>
        <time>2021-12-19T17:24:39Z</time>
      </trkpt>
      <trkpt lat="44.67105" lon="-0.02626">
        <ele>47</ele>
        <time>2021-12-19T17:24:59Z</time>
      </trkpt>
      <trkpt lat="44.67119" lon="-0.02626">
        <ele>48</ele>
        <time>2021-12-19T17:25:17Z</time>
      </trkpt>
      <trkpt lat="44.6713" lon="-0.02619">
        <ele>49</ele>
        <time>2021-12-19T17:25:34Z</time>
      </trkpt>
      <trkpt lat="44.67125" lon="-0.02619">
        <ele>49</ele>
        <time>2021-12-19T17:25:40Z</time>
      </trkpt>
      <trkpt lat="44.67128" lon="-0.02611">
        <ele>49</ele>
        <time>2021-12-19T17:25:49Z</time>
      </trkpt>
      <trkpt lat="44.67133" lon="-0.02608">
        <ele>50</ele>
        <time>2021-12-19T17:25:56Z</time>
      </trkpt>
      <trkpt lat="44.67126" lon="-0.02607">
        <ele>49</ele>
        <time>2021-12-19T17:26:05Z</time>
      </trkpt>
      <trkpt lat="44.67124" lon="-0.02617">
        <ele>49</ele>
        <time>2021-12-19T17:26:15Z</time>
      </trkpt>
      <trkpt lat="44.67122" lon="-0.02611">
        <ele>49</ele>
        <time>2021-12-19T17:26:22Z</time>
      </trkpt>
      <trkpt lat="44.67124" lon="-0.02605">
        <ele>49</ele>
        <time>2021-12-19T17:26:28Z</time>
      </trkpt>
      <trkpt lat="44.67123" lon="-0.02619">
        <ele>48</ele>
        <time>2021-12-19T17:26:41Z</time>
      </trkpt>
      <trkpt lat="44.6715" lon="-0.02669">
        <ele>50</ele>
        <time>2021-12-19T17:27:41Z</time>
      </trkpt>
      <trkpt lat="44.67148" lon="-0.02675">
        <ele>49</ele>
        <time>2021-12-19T17:27:47Z</time>
      </trkpt>
      <trkpt lat="44.67153" lon="-0.02688">
        <ele>49</ele>
        <time>2021-12-19T17:28:01Z</time>
      </trkpt>
      <trkpt lat="44.67151" lon="-0.02701">
        <ele>49</ele>
        <time>2021-12-19T17:28:14Z</time>
      </trkpt>
      <trkpt lat="44.67153" lon="-0.02714">
        <ele>48</ele>
        <time>2021-12-19T17:28:26Z</time>
      </trkpt>
      <trkpt lat="44.67161" lon="-0.02742">
        <ele>48</ele>
        <time>2021-12-19T17:28:55Z</time>
      </trkpt>
      <trkpt lat="44.67167" lon="-0.02752">
        <ele>48</ele>
        <time>2021-12-19T17:29:07Z</time>
      </trkpt>
      <trkpt lat="44.67172" lon="-0.02789">
        <ele>48</ele>
        <time>2021-12-19T17:29:43Z</time>
      </trkpt>
      <trkpt lat="44.67176" lon="-0.02795">
        <ele>48</ele>
        <time>2021-12-19T17:29:51Z</time>
      </trkpt>
      <trkpt lat="44.67187" lon="-0.02834">
        <ele>48</ele>
        <time>2021-12-19T17:30:31Z</time>
      </trkpt>
      <trkpt lat="44.67197" lon="-0.02847">
        <ele>48</ele>
        <time>2021-12-19T17:30:49Z</time>
      </trkpt>
      <trkpt lat="44.67216" lon="-0.02857">
        <ele>49</ele>
        <time>2021-12-19T17:31:16Z</time>
      </trkpt>
      <trkpt lat="44.67236" lon="-0.02863">
        <ele>51</ele>
        <time>2021-12-19T17:31:43Z</time>
      </trkpt>
      <trkpt lat="44.67255" lon="-0.02881">
        <ele>51</ele>
        <time>2021-12-19T17:32:14Z</time>
      </trkpt>
      <trkpt lat="44.67259" lon="-0.02876">
        <ele>52</ele>
        <time>2021-12-19T17:32:21Z</time>
      </trkpt>
      <trkpt lat="44.67268" lon="-0.02874">
        <ele>52</ele>
        <time>2021-12-19T17:32:33Z</time>
      </trkpt>
      <trkpt lat="44.67289" lon="-0.0288">
        <ele>53</ele>
        <time>2021-12-19T17:33:02Z</time>
      </trkpt>
      <trkpt lat="44.67294" lon="-0.02875">
        <ele>54</ele>
        <time>2021-12-19T17:33:10Z</time>
      </trkpt>
      <trkpt lat="44.67308" lon="-0.02879">
        <ele>55</ele>
        <time>2021-12-19T17:33:29Z</time>
      </trkpt>
      <trkpt lat="44.67315" lon="-0.02878">
        <ele>55</ele>
        <time>2021-12-19T17:33:38Z</time>
      </trkpt>
      <trkpt lat="44.67329" lon="-0.02883">
        <ele>56</ele>
        <time>2021-12-19T17:33:58Z</time>
      </trkpt>
      <trkpt lat="44.67339" lon="-0.0289">
        <ele>57</ele>
        <time>2021-12-19T17:34:13Z</time>
      </trkpt>
      <trkpt lat="44.67358" lon="-0.0289">
        <ele>58</ele>
        <time>2021-12-19T17:34:38Z</time>
      </trkpt>
      <trkpt lat="44.67363" lon="-0.02892">
        <ele>58</ele>
        <time>2021-12-19T17:34:45Z</time>
      </trkpt>
      <trkpt lat="44.67367" lon="-0.02898">
        <ele>58</ele>
        <time>2021-12-19T17:34:53Z</time>
      </trkpt>
      <trkpt lat="44.67378" lon="-0.02897">
        <ele>58</ele>
        <time>2021-12-19T17:35:07Z</time>
      </trkpt>
      <trkpt lat="44.67403" lon="-0.02901">
        <ele>59</ele>
        <time>2021-12-19T17:35:41Z</time>
      </trkpt>
      <trkpt lat="44.67421" lon="-0.02899">
        <ele>60</ele>
        <time>2021-12-19T17:36:05Z</time>
      </trkpt>
      <trkpt lat="44.67431" lon="-0.02905">
        <ele>60</ele>
        <time>2021-12-19T17:36:20Z</time>
      </trkpt>
      <trkpt lat="44.67457" lon="-0.0291">
        <ele>61</ele>
        <time>2021-12-19T17:36:55Z</time>
      </trkpt>
      <trkpt lat="44.67469" lon="-0.02909">
        <ele>61</ele>
        <time>2021-12-19T17:37:11Z</time>
      </trkpt>
      <trkpt lat="44.67473" lon="-0.02913">
        <ele>61</ele>
        <time>2021-12-19T17:37:17Z</time>
      </trkpt>
      <trkpt lat="44.67482" lon="-0.02915">
        <ele>61</ele>
        <time>2021-12-19T17:37:29Z</time>
      </trkpt>
      <trkpt lat="44.67503" lon="-0.02911">
        <ele>61</ele>
        <time>2021-12-19T17:37:58Z</time>
      </trkpt>
      <trkpt lat="44.67508" lon="-0.02905">
        <ele>62</ele>
        <time>2021-12-19T17:38:06Z</time>
      </trkpt>
      <trkpt lat="44.67513" lon="-0.02903">
        <ele>62</ele>
        <time>2021-12-19T17:38:13Z</time>
      </trkpt>
      <trkpt lat="44.67542" lon="-0.02903">
        <ele>62</ele>
        <time>2021-12-19T17:38:52Z</time>
      </trkpt>
      <trkpt lat="44.67551" lon="-0.029">
        <ele>62</ele>
        <time>2021-12-19T17:39:04Z</time>
      </trkpt>
      <trkpt lat="44.67562" lon="-0.02901">
        <ele>62</ele>
        <time>2021-12-19T17:39:19Z</time>
      </trkpt>
      <trkpt lat="44.67576" lon="-0.02897">
        <ele>62</ele>
        <time>2021-12-19T17:39:38Z</time>
      </trkpt>
      <trkpt lat="44.6758" lon="-0.02902">
        <ele>62</ele>
        <time>2021-12-19T17:39:45Z</time>
      </trkpt>
      <trkpt lat="44.67595" lon="-0.02907">
        <ele>61</ele>
        <time>2021-12-19T17:40:06Z</time>
      </trkpt>
      <trkpt lat="44.67598" lon="-0.02921">
        <ele>60</ele>
        <time>2021-12-19T17:40:20Z</time>
      </trkpt>
      <trkpt lat="44.67597" lon="-0.02927">
        <ele>60</ele>
        <time>2021-12-19T17:40:26Z</time>
      </trkpt>
      <trkpt lat="44.676" lon="-0.02935">
        <ele>60</ele>
        <time>2021-12-19T17:40:34Z</time>
      </trkpt>
      <trkpt lat="44.67594" lon="-0.02965">
        <ele>61</ele>
        <time>2021-12-19T17:41:04Z</time>
      </trkpt>
      <trkpt lat="44.67584" lon="-0.0299">
        <ele>61</ele>
        <time>2021-12-19T17:41:31Z</time>
      </trkpt>
      <trkpt lat="44.67576" lon="-0.03053">
        <ele>64</ele>
        <time>2021-12-19T17:42:32Z</time>
      </trkpt>
      <trkpt lat="44.67564" lon="-0.03082">
        <ele>65</ele>
        <time>2021-12-19T17:43:04Z</time>
      </trkpt>
      <trkpt lat="44.67549" lon="-0.03105">
        <ele>66</ele>
        <time>2021-12-19T17:43:33Z</time>
      </trkpt>
      <trkpt lat="44.67549" lon="-0.03115">
        <ele>67</ele>
        <time>2021-12-19T17:43:43Z</time>
      </trkpt>
      <trkpt lat="44.67556" lon="-0.03123">
        <ele>67</ele>
        <time>2021-12-19T17:43:55Z</time>
      </trkpt>
      <trkpt lat="44.67549" lon="-0.03115">
        <ele>67</ele>
        <time>2021-12-19T17:44:07Z</time>
      </trkpt>
      <trkpt lat="44.67561" lon="-0.03139">
        <ele>68</ele>
        <time>2021-12-19T17:44:35Z</time>
      </trkpt>
      <trkpt lat="44.67563" lon="-0.03154">
        <ele>69</ele>
        <time>2021-12-19T17:44:49Z</time>
      </trkpt>
      <trkpt lat="44.67568" lon="-0.03158">
        <ele>70</ele>
        <time>2021-12-19T17:44:57Z</time>
      </trkpt>
      <trkpt lat="44.67571" lon="-0.03171">
        <ele>70</ele>
        <time>2021-12-19T17:45:10Z</time>
      </trkpt>
      <trkpt lat="44.67577" lon="-0.03183">
        <ele>71</ele>
        <time>2021-12-19T17:45:24Z</time>
      </trkpt>
      <trkpt lat="44.6758" lon="-0.03204">
        <ele>71</ele>
        <time>2021-12-19T17:45:44Z</time>
      </trkpt>
      <trkpt lat="44.67585" lon="-0.03218">
        <ele>71</ele>
        <time>2021-12-19T17:45:59Z</time>
      </trkpt>
      <trkpt lat="44.6759" lon="-0.03213">
        <ele>71</ele>
        <time>2021-12-19T17:46:07Z</time>
      </trkpt>
      <trkpt lat="44.67614" lon="-0.03211">
        <ele>72</ele>
        <time>2021-12-19T17:46:39Z</time>
      </trkpt>
      <trkpt lat="44.67637" lon="-0.032">
        <ele>72</ele>
        <time>2021-12-19T17:47:11Z</time>
      </trkpt>
      <trkpt lat="44.67658" lon="-0.03199">
        <ele>73</ele>
        <time>2021-12-19T17:47:40Z</time>
      </trkpt>
      <trkpt lat="44.6765" lon="-0.032">
        <ele>73</ele>
        <time>2021-12-19T17:47:50Z</time>
      </trkpt>
      <trkpt lat="44.67699" lon="-0.03169">
        <ele>73</ele>
        <time>2021-12-19T17:49:02Z</time>
      </trkpt>
      <trkpt lat="44.67718" lon="-0.03164">
        <ele>74</ele>
        <time>2021-12-19T17:49:28Z</time>
      </trkpt>
      <trkpt lat="44.67752" lon="-0.0315">
        <ele>74</ele>
        <time>2021-12-19T17:50:15Z</time>
      </trkpt>
      <trkpt lat="44.67766" lon="-0.03139">
        <ele>74</ele>
        <time>2021-12-19T17:50:36Z</time>
      </trkpt>
      <trkpt lat="44.67772" lon="-0.03137">
        <ele>74</ele>
        <time>2021-12-19T17:50:45Z</time>
      </trkpt>
      <trkpt lat="44.67783" lon="-0.03139">
        <ele>74</ele>
        <time>2021-12-19T17:50:59Z</time>
      </trkpt>
      <trkpt lat="44.67788" lon="-0.03136">
        <ele>74</ele>
        <time>2021-12-19T17:51:07Z</time>
      </trkpt>
      <trkpt lat="44.67795" lon="-0.03124">
        <ele>74</ele>
        <time>2021-12-19T17:51:21Z</time>
      </trkpt>
      <trkpt lat="44.67799" lon="-0.03102">
        <ele>73</ele>
        <time>2021-12-19T17:51:43Z</time>
      </trkpt>
      <trkpt lat="44.67796" lon="-0.03096">
        <ele>72</ele>
        <time>2021-12-19T17:51:50Z</time>
      </trkpt>
      <trkpt lat="44.67797" lon="-0.03088">
        <ele>72</ele>
        <time>2021-12-19T17:51:58Z</time>
      </trkpt>
      <trkpt lat="44.6779" lon="-0.03061">
        <ele>70</ele>
        <time>2021-12-19T17:52:25Z</time>
      </trkpt>
      <trkpt lat="44.67788" lon="-0.03038">
        <ele>69</ele>
        <time>2021-12-19T17:52:47Z</time>
      </trkpt>
      <trkpt lat="44.67773" lon="-0.02976">
        <ele>66</ele>
        <time>2021-12-19T17:53:49Z</time>
      </trkpt>
      <trkpt lat="44.6777" lon="-0.02934">
        <ele>64</ele>
        <time>2021-12-19T17:54:29Z</time>
      </trkpt>
      <trkpt lat="44.67759" lon="-0.0288">
        <ele>64</ele>
        <time>2021-12-19T17:55:22Z</time>
      </trkpt>
      <trkpt lat="44.67759" lon="-0.02846">
        <ele>65</ele>
        <time>2021-12-19T17:55:55Z</time>
      </trkpt>
      <trkpt lat="44.67762" lon="-0.02819">
        <ele>66</ele>
        <time>2021-12-19T17:56:21Z</time>
      </trkpt>
      <trkpt lat="44.67765" lon="-0.02814">
        <ele>67</ele>
        <time>2021-12-19T17:56:27Z</time>
      </trkpt>
      <trkpt lat="44.67775" lon="-0.02812">
        <ele>67</ele>
        <time>2021-12-19T17:56:40Z</time>
      </trkpt>
      <trkpt lat="44.67784" lon="-0.02806">
        <ele>67</ele>
        <time>2021-12-19T17:56:54Z</time>
      </trkpt>
      <trkpt lat="44.67809" lon="-0.02801">
        <ele>68</ele>
        <time>2021-12-19T17:57:27Z</time>
      </trkpt>
      <trkpt lat="44.67824" lon="-0.02794">
        <ele>68</ele>
        <time>2021-12-19T17:57:48Z</time>
      </trkpt>
      <trkpt lat="44.67851" lon="-0.0279">
        <ele>68</ele>
        <time>2021-12-19T17:58:25Z</time>
      </trkpt>
      <trkpt lat="44.67854" lon="-0.02784">
        <ele>68</ele>
        <time>2021-12-19T17:58:32Z</time>
      </trkpt>
      <trkpt lat="44.67866" lon="-0.02783">
        <ele>68</ele>
        <time>2021-12-19T17:58:48Z</time>
      </trkpt>
      <trkpt lat="44.67868" lon="-0.02777">
        <ele>68</ele>
        <time>2021-12-19T17:58:54Z</time>
      </trkpt>
      <trkpt lat="44.67864" lon="-0.02761">
        <ele>69</ele>
        <time>2021-12-19T17:59:10Z</time>
      </trkpt>
      <trkpt lat="44.67869" lon="-0.02744">
        <ele>69</ele>
        <time>2021-12-19T17:59:27Z</time>
      </trkpt>
      <trkpt lat="44.67865" lon="-0.0274">
        <ele>70</ele>
        <time>2021-12-19T17:59:34Z</time>
      </trkpt>
      <trkpt lat="44.67865" lon="-0.02732">
        <ele>70</ele>
        <time>2021-12-19T17:59:42Z</time>
      </trkpt>
      <trkpt lat="44.67858" lon="-0.02719">
        <ele>71</ele>
        <time>2021-12-19T17:59:57Z</time>
      </trkpt>
      <trkpt lat="44.67857" lon="-0.02681">
        <ele>72</ele>
        <time>2021-12-19T18:00:33Z</time>
      </trkpt>
      <trkpt lat="44.67854" lon="-0.02675">
        <ele>73</ele>
        <time>2021-12-19T18:00:40Z</time>
      </trkpt>
      <trkpt lat="44.67853" lon="-0.02654">
        <ele>74</ele>
        <time>2021-12-19T18:01:00Z</time>
      </trkpt>
      <trkpt lat="44.67851" lon="-0.02647">
        <ele>74</ele>
        <time>2021-12-19T18:01:07Z</time>
      </trkpt>
      <trkpt lat="44.67847" lon="-0.02643">
        <ele>74</ele>
        <time>2021-12-19T18:01:14Z</time>
      </trkpt>
      <trkpt lat="44.67848" lon="-0.02637">
        <ele>74</ele>
        <time>2021-12-19T18:01:20Z</time>
      </trkpt>
      <trkpt lat="44.67844" lon="-0.02616">
        <ele>75</ele>
        <time>2021-12-19T18:01:40Z</time>
      </trkpt>
      <trkpt lat="44.67838" lon="-0.02604">
        <ele>76</ele>
        <time>2021-12-19T18:01:54Z</time>
      </trkpt>
      <trkpt lat="44.67834" lon="-0.02557">
        <ele>78</ele>
        <time>2021-12-19T18:02:39Z</time>
      </trkpt>
      <trkpt lat="44.67842" lon="-0.02539">
        <ele>78</ele>
        <time>2021-12-19T18:02:59Z</time>
      </trkpt>
      <trkpt lat="44.67856" lon="-0.0253">
        <ele>78</ele>
        <time>2021-12-19T18:03:20Z</time>
      </trkpt>
      <trkpt lat="44.67861" lon="-0.02523">
        <ele>78</ele>
        <time>2021-12-19T18:03:29Z</time>
      </trkpt>
      <trkpt lat="44.67859" lon="-0.02521">
        <ele>78</ele>
        <time>2021-12-19T18:03:32Z</time>
      </trkpt>
      <trkpt lat="44.67885" lon="-0.02515">
        <ele>78</ele>
        <time>2021-12-19T18:04:08Z</time>
      </trkpt>
      <trkpt lat="44.67889" lon="-0.02511">
        <ele>78</ele>
        <time>2021-12-19T18:04:14Z</time>
      </trkpt>
      <trkpt lat="44.67929" lon="-0.02506">
        <ele>79</ele>
        <time>2021-12-19T18:05:08Z</time>
      </trkpt>
      <trkpt lat="44.67944" lon="-0.02502">
        <ele>79</ele>
        <time>2021-12-19T18:05:28Z</time>
      </trkpt>
      <trkpt lat="44.67949" lon="-0.02504">
        <ele>79</ele>
        <time>2021-12-19T18:05:35Z</time>
      </trkpt>
      <trkpt lat="44.67975" lon="-0.02503">
        <ele>79</ele>
        <time>2021-12-19T18:06:10Z</time>
      </trkpt>
      <trkpt lat="44.67985" lon="-0.02499">
        <ele>79</ele>
        <time>2021-12-19T18:06:24Z</time>
      </trkpt>
      <trkpt lat="44.68041" lon="-0.02489">
        <ele>80</ele>
        <time>2021-12-19T18:07:39Z</time>
      </trkpt>
      <trkpt lat="44.68054" lon="-0.0248">
        <ele>81</ele>
        <time>2021-12-19T18:07:58Z</time>
      </trkpt>
      <trkpt lat="44.68075" lon="-0.0248">
        <ele>81</ele>
        <time>2021-12-19T18:08:26Z</time>
      </trkpt>
      <trkpt lat="44.68091" lon="-0.02477">
        <ele>82</ele>
        <time>2021-12-19T18:08:48Z</time>
      </trkpt>
      <trkpt lat="44.68105" lon="-0.02472">
        <ele>82</ele>
        <time>2021-12-19T18:09:07Z</time>
      </trkpt>
      <trkpt lat="44.68109" lon="-0.02467">
        <ele>82</ele>
        <time>2021-12-19T18:09:14Z</time>
      </trkpt>
      <trkpt lat="44.68112" lon="-0.02455">
        <ele>82</ele>
        <time>2021-12-19T18:09:26Z</time>
      </trkpt>
      <trkpt lat="44.6811" lon="-0.02405">
        <ele>83</ele>
        <time>2021-12-19T18:10:14Z</time>
      </trkpt>
      <trkpt lat="44.68115" lon="-0.02336">
        <ele>86</ele>
        <time>2021-12-19T18:11:20Z</time>
      </trkpt>
      <trkpt lat="44.6811" lon="-0.02324">
        <ele>87</ele>
        <time>2021-12-19T18:11:33Z</time>
      </trkpt>
      <trkpt lat="44.68113" lon="-0.0231">
        <ele>87</ele>
        <time>2021-12-19T18:11:47Z</time>
      </trkpt>
      <trkpt lat="44.6811" lon="-0.02281">
        <ele>88</ele>
        <time>2021-12-19T18:12:15Z</time>
      </trkpt>
      <trkpt lat="44.6811" lon="-0.0224">
        <ele>89</ele>
        <time>2021-12-19T18:12:53Z</time>
      </trkpt>
      <trkpt lat="44.681" lon="-0.022">
        <ele>90</ele>
        <time>2021-12-19T18:13:34Z</time>
      </trkpt>
      <trkpt lat="44.68094" lon="-0.0216">
        <ele>90</ele>
        <time>2021-12-19T18:14:12Z</time>
      </trkpt>
      <trkpt lat="44.68089" lon="-0.02155">
        <ele>90</ele>
        <time>2021-12-19T18:14:21Z</time>
      </trkpt>
      <trkpt lat="44.68084" lon="-0.02156">
        <ele>90</ele>
        <time>2021-12-19T18:14:27Z</time>
      </trkpt>
      <trkpt lat="44.68078" lon="-0.02161">
        <ele>90</ele>
        <time>2021-12-19T18:14:37Z</time>
      </trkpt>
      <trkpt lat="44.68072" lon="-0.0216">
        <ele>90</ele>
        <time>2021-12-19T18:14:45Z</time>
      </trkpt>
      <trkpt lat="44.68068" lon="-0.02163">
        <ele>90</ele>
        <time>2021-12-19T18:14:51Z</time>
      </trkpt>
      <trkpt lat="44.6805" lon="-0.02152">
        <ele>89</ele>
        <time>2021-12-19T18:15:17Z</time>
      </trkpt>
      <trkpt lat="44.68041" lon="-0.02145">
        <ele>89</ele>
        <time>2021-12-19T18:15:31Z</time>
      </trkpt>
      <trkpt lat="44.68039" lon="-0.02138">
        <ele>89</ele>
        <time>2021-12-19T18:15:38Z</time>
      </trkpt>
      <trkpt lat="44.68034" lon="-0.02135">
        <ele>88</ele>
        <time>2021-12-19T18:15:45Z</time>
      </trkpt>
      <trkpt lat="44.68033" lon="-0.02129">
        <ele>88</ele>
        <time>2021-12-19T18:15:51Z</time>
      </trkpt>
      <trkpt lat="44.68029" lon="-0.02126">
        <ele>88</ele>
        <time>2021-12-19T18:15:57Z</time>
      </trkpt>
      <trkpt lat="44.68018" lon="-0.02108">
        <ele>87</ele>
        <time>2021-12-19T18:16:20Z</time>
      </trkpt>
      <trkpt lat="44.68012" lon="-0.02107">
        <ele>87</ele>
        <time>2021-12-19T18:16:28Z</time>
      </trkpt>
      <trkpt lat="44.68007" lon="-0.02094">
        <ele>87</ele>
        <time>2021-12-19T18:16:42Z</time>
      </trkpt>
      <trkpt lat="44.67998" lon="-0.02096">
        <ele>86</ele>
        <time>2021-12-19T18:16:54Z</time>
      </trkpt>
      <trkpt lat="44.67994" lon="-0.02101">
        <ele>86</ele>
        <time>2021-12-19T18:17:01Z</time>
      </trkpt>
      <trkpt lat="44.67975" lon="-0.02142">
        <ele>86</ele>
        <time>2021-12-19T18:17:47Z</time>
      </trkpt>
      <trkpt lat="44.6797" lon="-0.02147">
        <ele>85</ele>
        <time>2021-12-19T18:17:56Z</time>
      </trkpt>
      <trkpt lat="44.67965" lon="-0.02167">
        <ele>86</ele>
        <time>2021-12-19T18:18:16Z</time>
      </trkpt>
      <trkpt lat="44.67963" lon="-0.02188">
        <ele>86</ele>
        <time>2021-12-19T18:18:36Z</time>
      </trkpt>
      <trkpt lat="44.67965" lon="-0.0221">
        <ele>86</ele>
        <time>2021-12-19T18:18:57Z</time>
      </trkpt>
      <trkpt lat="44.67963" lon="-0.02217">
        <ele>86</ele>
        <time>2021-12-19T18:19:04Z</time>
      </trkpt>
      <trkpt lat="44.67959" lon="-0.02221">
        <ele>86</ele>
        <time>2021-12-19T18:19:11Z</time>
      </trkpt>
      <trkpt lat="44.67954" lon="-0.02223">
        <ele>86</ele>
        <time>2021-12-19T18:19:18Z</time>
      </trkpt>
      <trkpt lat="44.67942" lon="-0.02222">
        <ele>85</ele>
        <time>2021-12-19T18:19:34Z</time>
      </trkpt>
      <trkpt lat="44.67933" lon="-0.02216">
        <ele>85</ele>
        <time>2021-12-19T18:19:47Z</time>
      </trkpt>
      <trkpt lat="44.67899" lon="-0.02209">
        <ele>83</ele>
        <time>2021-12-19T18:20:33Z</time>
      </trkpt>
      <trkpt lat="44.67889" lon="-0.02209">
        <ele>82</ele>
        <time>2021-12-19T18:20:46Z</time>
      </trkpt>
      <trkpt lat="44.67886" lon="-0.02206">
        <ele>82</ele>
        <time>2021-12-19T18:20:51Z</time>
      </trkpt>
      <trkpt lat="44.6787" lon="-0.02201">
        <ele>81</ele>
        <time>2021-12-19T18:21:13Z</time>
      </trkpt>
      <trkpt lat="44.67842" lon="-0.02198">
        <ele>78</ele>
        <time>2021-12-19T18:21:50Z</time>
      </trkpt>
      <trkpt lat="44.67838" lon="-0.02193">
        <ele>78</ele>
        <time>2021-12-19T18:21:57Z</time>
      </trkpt>
      <trkpt lat="44.67827" lon="-0.02193">
        <ele>77</ele>
        <time>2021-12-19T18:22:12Z</time>
      </trkpt>
      <trkpt lat="44.67806" lon="-0.02187">
        <ele>77</ele>
        <time>2021-12-19T18:22:41Z</time>
      </trkpt>
      <trkpt lat="44.678" lon="-0.02173">
        <ele>75</ele>
        <time>2021-12-19T18:22:56Z</time>
      </trkpt>
      <trkpt lat="44.67792" lon="-0.02164">
        <ele>74</ele>
        <time>2021-12-19T18:23:10Z</time>
      </trkpt>
      <trkpt lat="44.6779" lon="-0.02157">
        <ele>74</ele>
        <time>2021-12-19T18:23:17Z</time>
      </trkpt>
      <trkpt lat="44.67773" lon="-0.02141">
        <ele>72</ele>
        <time>2021-12-19T18:23:44Z</time>
      </trkpt>
      <trkpt lat="44.67761" lon="-0.02117">
        <ele>69</ele>
        <time>2021-12-19T18:24:12Z</time>
      </trkpt>
      <trkpt lat="44.67762" lon="-0.02102">
        <ele>68</ele>
        <time>2021-12-19T18:24:26Z</time>
      </trkpt>
      <trkpt lat="44.67756" lon="-0.02093">
        <ele>67</ele>
        <time>2021-12-19T18:24:38Z</time>
      </trkpt>
      <trkpt lat="44.67745" lon="-0.02085">
        <ele>66</ele>
        <time>2021-12-19T18:24:55Z</time>
      </trkpt>
      <trkpt lat="44.67743" lon="-0.02077">
        <ele>66</ele>
        <time>2021-12-19T18:25:03Z</time>
      </trkpt>
      <trkpt lat="44.67738" lon="-0.02077">
        <ele>66</ele>
        <time>2021-12-19T18:25:09Z</time>
      </trkpt>
      <trkpt lat="44.67738" lon="-0.02069">
        <ele>66</ele>
        <time>2021-12-19T18:25:17Z</time>
      </trkpt>
      <trkpt lat="44.67731" lon="-0.0205">
        <ele>65</ele>
        <time>2021-12-19T18:25:37Z</time>
      </trkpt>
      <trkpt lat="44.67726" lon="-0.02048">
        <ele>65</ele>
        <time>2021-12-19T18:25:44Z</time>
      </trkpt>
      <trkpt lat="44.67716" lon="-0.02025">
        <ele>64</ele>
        <time>2021-12-19T18:26:10Z</time>
      </trkpt>
      <trkpt lat="44.67709" lon="-0.02021">
        <ele>64</ele>
        <time>2021-12-19T18:26:20Z</time>
      </trkpt>
      <trkpt lat="44.67693" lon="-0.01993">
        <ele>62</ele>
        <time>2021-12-19T18:26:54Z</time>
      </trkpt>
      <trkpt lat="44.67688" lon="-0.0199">
        <ele>62</ele>
        <time>2021-12-19T18:27:01Z</time>
      </trkpt>
      <trkpt lat="44.67672" lon="-0.0196">
        <ele>60</ele>
        <time>2021-12-19T18:27:37Z</time>
      </trkpt>
      <trkpt lat="44.67669" lon="-0.01949">
        <ele>60</ele>
        <time>2021-12-19T18:27:48Z</time>
      </trkpt>
      <trkpt lat="44.67661" lon="-0.0194">
        <ele>60</ele>
        <time>2021-12-19T18:28:02Z</time>
      </trkpt>
      <trkpt lat="44.67659" lon="-0.01927">
        <ele>59</ele>
        <time>2021-12-19T18:28:14Z</time>
      </trkpt>
      <trkpt lat="44.67646" lon="-0.01894">
        <ele>60</ele>
        <time>2021-12-19T18:28:50Z</time>
      </trkpt>
      <trkpt lat="44.67645" lon="-0.01881">
        <ele>59</ele>
        <time>2021-12-19T18:29:03Z</time>
      </trkpt>
      <trkpt lat="44.67648" lon="-0.01868">
        <ele>59</ele>
        <time>2021-12-19T18:29:16Z</time>
      </trkpt>
      <trkpt lat="44.67644" lon="-0.01854">
        <ele>59</ele>
        <time>2021-12-19T18:29:30Z</time>
      </trkpt>
      <trkpt lat="44.67645" lon="-0.0184">
        <ele>58</ele>
        <time>2021-12-19T18:29:43Z</time>
      </trkpt>
      <trkpt lat="44.67635" lon="-0.01806">
        <ele>58</ele>
        <time>2021-12-19T18:30:18Z</time>
      </trkpt>
      <trkpt lat="44.67638" lon="-0.01795">
        <ele>58</ele>
        <time>2021-12-19T18:30:29Z</time>
      </trkpt>
      <trkpt lat="44.67642" lon="-0.0179">
        <ele>58</ele>
        <time>2021-12-19T18:30:36Z</time>
      </trkpt>
      <trkpt lat="44.67648" lon="-0.01792">
        <ele>57</ele>
        <time>2021-12-19T18:30:45Z</time>
      </trkpt>
      <trkpt lat="44.67663" lon="-0.01785">
        <ele>57</ele>
        <time>2021-12-19T18:31:06Z</time>
      </trkpt>
      <trkpt lat="44.67695" lon="-0.01777">
        <ele>58</ele>
        <time>2021-12-19T18:31:49Z</time>
      </trkpt>
      <trkpt lat="44.6774" lon="-0.01745">
        <ele>60</ele>
        <time>2021-12-19T18:32:56Z</time>
      </trkpt>
      <trkpt lat="44.67762" lon="-0.01724">
        <ele>61</ele>
        <time>2021-12-19T18:33:32Z</time>
      </trkpt>
      <trkpt lat="44.67765" lon="-0.01718">
        <ele>61</ele>
        <time>2021-12-19T18:33:39Z</time>
      </trkpt>
      <trkpt lat="44.67781" lon="-0.01701">
        <ele>61</ele>
        <time>2021-12-19T18:34:06Z</time>
      </trkpt>
      <trkpt lat="44.6779" lon="-0.01694">
        <ele>62</ele>
        <time>2021-12-19T18:34:19Z</time>
      </trkpt>
      <trkpt lat="44.67797" lon="-0.01683">
        <ele>62</ele>
        <time>2021-12-19T18:34:33Z</time>
      </trkpt>
      <trkpt lat="44.67807" lon="-0.01675">
        <ele>62</ele>
        <time>2021-12-19T18:34:49Z</time>
      </trkpt>
      <trkpt lat="44.67835" lon="-0.01643">
        <ele>63</ele>
        <time>2021-12-19T18:35:37Z</time>
      </trkpt>
      <trkpt lat="44.67836" lon="-0.01636">
        <ele>62</ele>
        <time>2021-12-19T18:35:44Z</time>
      </trkpt>
      <trkpt lat="44.67843" lon="-0.01625">
        <ele>62</ele>
        <time>2021-12-19T18:35:58Z</time>
      </trkpt>
      <trkpt lat="44.67845" lon="-0.01612">
        <ele>62</ele>
        <time>2021-12-19T18:36:10Z</time>
      </trkpt>
      <trkpt lat="44.67856" lon="-0.01582">
        <ele>61</ele>
        <time>2021-12-19T18:36:42Z</time>
      </trkpt>
      <trkpt lat="44.67873" lon="-0.01559">
        <ele>62</ele>
        <time>2021-12-19T18:37:14Z</time>
      </trkpt>
      <trkpt lat="44.67905" lon="-0.01535">
        <ele>65</ele>
        <time>2021-12-19T18:38:02Z</time>
      </trkpt>
      <trkpt lat="44.67921" lon="-0.01526">
        <ele>66</ele>
        <time>2021-12-19T18:38:25Z</time>
      </trkpt>
      <trkpt lat="44.67926" lon="-0.0152">
        <ele>66</ele>
        <time>2021-12-19T18:38:34Z</time>
      </trkpt>
      <trkpt lat="44.67931" lon="-0.01521">
        <ele>66</ele>
        <time>2021-12-19T18:38:41Z</time>
      </trkpt>
      <trkpt lat="44.67952" lon="-0.0151">
        <ele>66</ele>
        <time>2021-12-19T18:39:11Z</time>
      </trkpt>
      <trkpt lat="44.67955" lon="-0.01505">
        <ele>66</ele>
        <time>2021-12-19T18:39:17Z</time>
      </trkpt>
      <trkpt lat="44.67973" lon="-0.01498">
        <ele>66</ele>
        <time>2021-12-19T18:39:42Z</time>
      </trkpt>
      <trkpt lat="44.67986" lon="-0.01487">
        <ele>66</ele>
        <time>2021-12-19T18:40:02Z</time>
      </trkpt>
      <trkpt lat="44.6799" lon="-0.01474">
        <ele>66</ele>
        <time>2021-12-19T18:40:15Z</time>
      </trkpt>
      <trkpt lat="44.6799" lon="-0.0146">
        <ele>66</ele>
        <time>2021-12-19T18:40:29Z</time>
      </trkpt>
      <trkpt lat="44.67989" lon="-0.01454">
        <ele>65</ele>
        <time>2021-12-19T18:40:34Z</time>
      </trkpt>
      <trkpt lat="44.67981" lon="-0.01442">
        <ele>65</ele>
        <time>2021-12-19T18:40:50Z</time>
      </trkpt>
      <trkpt lat="44.67987" lon="-0.01428">
        <ele>65</ele>
        <time>2021-12-19T18:41:06Z</time>
      </trkpt>
      <trkpt lat="44.67989" lon="-0.01414">
        <ele>64</ele>
        <time>2021-12-19T18:41:19Z</time>
      </trkpt>
      <trkpt lat="44.67984" lon="-0.01411">
        <ele>64</ele>
        <time>2021-12-19T18:41:26Z</time>
      </trkpt>
      <trkpt lat="44.67983" lon="-0.01397">
        <ele>64</ele>
        <time>2021-12-19T18:41:40Z</time>
      </trkpt>
      <trkpt lat="44.67979" lon="-0.0139">
        <ele>63</ele>
        <time>2021-12-19T18:41:48Z</time>
      </trkpt>
      <trkpt lat="44.67982" lon="-0.01384">
        <ele>63</ele>
        <time>2021-12-19T18:41:55Z</time>
      </trkpt>
      <trkpt lat="44.6798" lon="-0.01377">
        <ele>63</ele>
        <time>2021-12-19T18:42:02Z</time>
      </trkpt>
      <trkpt lat="44.67984" lon="-0.01363">
        <ele>63</ele>
        <time>2021-12-19T18:42:17Z</time>
      </trkpt>
      <trkpt lat="44.67981" lon="-0.01295">
        <ele>61</ele>
        <time>2021-12-19T18:43:21Z</time>
      </trkpt>
      <trkpt lat="44.67989" lon="-0.01285">
        <ele>61</ele>
        <time>2021-12-19T18:43:36Z</time>
      </trkpt>
      <trkpt lat="44.67993" lon="-0.01284">
        <ele>61</ele>
        <time>2021-12-19T18:43:41Z</time>
      </trkpt>
      <trkpt lat="44.67997" lon="-0.01289">
        <ele>62</ele>
        <time>2021-12-19T18:43:48Z</time>
      </trkpt>
      <trkpt lat="44.68002" lon="-0.01286">
        <ele>62</ele>
        <time>2021-12-19T18:43:55Z</time>
      </trkpt>
      <trkpt lat="44.68007" lon="-0.01289">
        <ele>62</ele>
        <time>2021-12-19T18:44:03Z</time>
      </trkpt>
      <trkpt lat="44.68005" lon="-0.01283">
        <ele>61</ele>
        <time>2021-12-19T18:44:09Z</time>
      </trkpt>
      <trkpt lat="44.68011" lon="-0.01275">
        <ele>61</ele>
        <time>2021-12-19T18:44:20Z</time>
      </trkpt>
      <trkpt lat="44.68019" lon="-0.01273">
        <ele>60</ele>
        <time>2021-12-19T18:44:31Z</time>
      </trkpt>
      <trkpt lat="44.68028" lon="-0.01255">
        <ele>59</ele>
        <time>2021-12-19T18:44:52Z</time>
      </trkpt>
      <trkpt lat="44.68032" lon="-0.01263">
        <ele>59</ele>
        <time>2021-12-19T18:45:01Z</time>
      </trkpt>
      <trkpt lat="44.68033" lon="-0.01274">
        <ele>60</ele>
        <time>2021-12-19T18:45:12Z</time>
      </trkpt>
      <trkpt lat="44.68036" lon="-0.01268">
        <ele>59</ele>
        <time>2021-12-19T18:45:19Z</time>
      </trkpt>
      <trkpt lat="44.68037" lon="-0.01245">
        <ele>58</ele>
        <time>2021-12-19T18:45:40Z</time>
      </trkpt>
      <trkpt lat="44.68035" lon="-0.01235">
        <ele>57</ele>
        <time>2021-12-19T18:45:50Z</time>
      </trkpt>
      <trkpt lat="44.68031" lon="-0.01229">
        <ele>57</ele>
        <time>2021-12-19T18:45:58Z</time>
      </trkpt>
      <trkpt lat="44.68033" lon="-0.01223">
        <ele>57</ele>
        <time>2021-12-19T18:46:04Z</time>
      </trkpt>
      <trkpt lat="44.68032" lon="-0.01209">
        <ele>56</ele>
        <time>2021-12-19T18:46:18Z</time>
      </trkpt>
      <trkpt lat="44.68035" lon="-0.01203">
        <ele>55</ele>
        <time>2021-12-19T18:46:25Z</time>
      </trkpt>
      <trkpt lat="44.68032" lon="-0.01188">
        <ele>55</ele>
        <time>2021-12-19T18:46:39Z</time>
      </trkpt>
    </trkseg>
  </trk>
</gpx>